Time;durP1;ratioP1;P1;durP2;ratioP2;P2;SDS_P1;SDS_P2;PMS_P1;PMS_P2;Temp;Humidity;BMP_temperature;BMP_pressure;BME280_temperature;BME280_humidity;BME280_pressure;Samples;Min_cycle;Max_cycle;Signal;HPM_P1;HPM_P2
2023/03/14 00:01:27;;;;;;;;;;;;;;;9.32;52.40;95338.98;109087;1274;22517;-81
2023/03/14 00:03:56;;;;;;;;;;;;;;;9.25;52.39;95333.85;109053;1268;47859;-81
2023/03/14 00:06:26;;;;;;;;;;;;;;;9.22;52.71;95329.91;109084;1274;22524;-81
2023/03/14 00:08:56;;;;;;;;;;;;;;;9.10;52.94;95324.17;109106;1269;22512;-81
2023/03/14 00:11:25;;;;;;;;;;;;;;;8.99;53.07;95324.84;109079;1273;22530;-81
2023/03/14 00:13:55;;;;;;;;;;;;;;;9.00;53.16;95324.39;109042;1267;56275;-81
2023/03/14 00:16:24;;;;;;;;;;;;;;;8.98;53.24;95314.39;109071;1273;25262;-81
2023/03/14 00:18:54;;;;;;;;;;;;;;;9.07;53.17;95305.52;109104;1269;22497;-82
2023/03/14 00:21:23;;;;;;;;;;;;;;;9.13;53.11;95304.36;109085;1273;22533;-81
2023/03/14 00:23:55;;;;;;;;;;;;;;;9.11;53.26;95300.06;109007;1270;83394;-82
2023/03/14 00:26:24;;;;;;;;;;;;;;;9.05;53.28;95302.67;109089;1273;24202;-81
2023/03/14 00:28:55;;;;;;;;;;;;;;;9.10;53.24;95293.48;109078;1274;22483;-82
2023/03/14 00:31:27;;;;;;;;;;;;;;;9.16;53.10;95274.11;109056;1273;22553;-81
2023/03/14 00:33:56;;;;;;;;;;;;;;;9.22;52.91;95264.27;109017;1268;36008;-82
2023/03/14 00:36:27;;;;;;;;;;;;;;;9.21;53.11;95253.31;109126;1273;25421;-82
2023/03/14 00:38:56;;;;;;;;;;;;;;;9.13;53.21;95248.04;109059;1274;22488;-82
2023/03/14 00:41:26;;;;;;;;;;;;;;;9.16;53.14;95246.19;109077;1273;22741;-82
2023/03/14 00:43:55;;;;;;;;;;;;;;;9.17;53.14;95245.37;109042;1273;31450;-82
2023/03/14 00:46:32;;;;;;;;;;;;;;;9.18;53.31;95238.10;109082;1264;25276;-82
2023/03/14 00:49:01;;;;;;;;;;;;;;;9.09;53.48;95231.88;109072;1273;22499;-81
2023/03/14 00:51:31;;;;;;;;;;;;;;;9.01;53.51;95219.48;109104;1273;22573;-81
2023/03/14 00:54:01;;;;;;;;;;;;;;;9.07;53.55;95220.86;109052;1268;31584;-82
2023/03/14 00:56:31;;;;;;;;;;;;;;;9.01;53.65;95213.04;109113;1273;25424;-81
2023/03/14 00:59:01;;;;;;;;;;;;;;;8.88;53.68;95215.29;109075;1267;25206;-81
2023/03/14 01:01:30;;;;;;;;;;;;;;;8.79;53.98;95206.80;109078;1267;23616;-81
2023/03/14 01:04:00;;;;;;;;;;;;;;;8.79;54.01;95197.97;109059;1269;44870;-82
2023/03/14 01:06:30;;;;;;;;;;;;;;;9.02;53.77;95192.06;109065;1268;22511;-81
2023/03/14 01:09:00;;;;;;;;;;;;;;;9.16;53.50;95187.00;109090;1273;22503;-80
2023/03/14 01:11:30;;;;;;;;;;;;;;;9.32;53.07;95176.94;109069;1269;22628;-81
2023/03/14 01:14:03;;;;;;;;;;;;;;;9.39;52.80;95176.56;109044;1273;33985;-82
2023/03/14 01:16:35;;;;;;;;;;;;;;;9.42;52.73;95176.59;109145;1273;22542;-81
2023/03/14 01:19:05;;;;;;;;;;;;;;;9.42;52.71;95172.45;109085;1273;22544;-81
2023/03/14 01:21:36;;;;;;;;;;;;;;;9.44;52.58;95162.46;109089;1274;22528;-82
2023/03/14 01:24:08;;;;;;;;;;;;;;;9.44;52.75;95159.31;109081;1266;22524;-82
2023/03/14 01:26:38;;;;;;;;;;;;;;;9.35;52.94;95155.11;109090;1273;22699;-82
2023/03/14 01:29:07;;;;;;;;;;;;;;;9.27;53.19;95144.38;109134;1273;25259;-82
2023/03/14 01:31:37;;;;;;;;;;;;;;;9.19;53.54;95139.56;109103;1269;22457;-82
2023/03/14 01:34:06;;;;;;;;;;;;;;;9.15;53.87;95140.20;109035;1268;83924;-82
2023/03/14 01:36:36;;;;;;;;;;;;;;;9.13;53.82;95133.20;109097;1273;22445;-81
2023/03/14 01:39:07;;;;;;;;;;;;;;;9.09;54.01;95120.88;109094;1273;24222;-81
2023/03/14 01:41:37;;;;;;;;;;;;;;;9.02;54.13;95118.05;109131;1269;22497;-81
2023/03/14 01:44:07;;;;;;;;;;;;;;;8.99;54.38;95110.21;109022;1270;22919;-82
2023/03/14 01:46:41;;;;;;;;;;;;;;;8.98;54.65;95100.29;109123;1270;22538;-81
2023/03/14 01:49:17;;;;;;;;;;;;;;;8.98;54.74;95092.00;109098;1273;22575;-81
2023/03/14 01:51:48;;;;;;;;;;;;;;;9.06;54.87;95095.95;109047;1271;23103;-81
2023/03/14 01:54:20;;;;;;;;;;;;;;;9.11;54.73;95080.97;109088;1273;22475;-81
2023/03/14 01:56:52;;;;;;;;;;;;;;;9.28;54.60;95081.66;109037;1267;23773;-81
2023/03/14 01:59:22;;;;;;;;;;;;;;;9.32;54.42;95085.44;109083;1274;22497;-82
2023/03/14 02:01:52;;;;;;;;;;;;;;;9.23;54.54;95084.29;109087;1266;22509;-82
2023/03/14 02:04:24;;;;;;;;;;;;;;;9.14;54.72;95087.23;109079;1266;22446;-81
2023/03/14 02:06:59;;;;;;;;;;;;;;;9.11;54.81;95079.55;109071;1275;25399;-81
2023/03/14 02:09:29;;;;;;;;;;;;;;;9.06;55.08;95080.44;109078;1274;22505;-81
2023/03/14 02:11:58;;;;;;;;;;;;;;;9.05;55.19;95065.60;109085;1266;23752;-81
2023/03/14 02:14:32;;;;;;;;;;;;;;;9.00;55.47;95059.27;109091;1273;22496;-81
2023/03/14 02:17:04;;;;;;;;;;;;;;;8.95;55.74;95052.73;109096;1270;22594;-81
2023/03/14 02:19:41;;;;;;;;;;;;;;;8.91;55.90;95048.29;109079;1272;22536;-81
2023/03/14 02:22:12;;;;;;;;;;;;;;;9.00;55.90;95031.73;109101;1273;22551;-81
2023/03/14 02:24:48;;;;;;;;;;;;;;;9.19;55.47;95030.89;109065;1269;22494;-81
2023/03/14 02:27:18;;;;;;;;;;;;;;;9.33;55.12;95034.45;109156;1273;22670;-82
2023/03/14 02:29:50;;;;;;;;;;;;;;;9.41;54.78;95030.19;109123;1273;25971;-82
2023/03/14 02:32:20;;;;;;;;;;;;;;;9.45;54.65;95018.95;109120;1273;22509;-80
2023/03/14 02:34:51;;;;;;;;;;;;;;;9.53;54.34;95019.97;109087;1269;41642;-81
2023/03/14 02:37:25;;;;;;;;;;;;;;;9.59;54.23;95017.79;109078;1273;22506;-81
2023/03/14 02:39:55;;;;;;;;;;;;;;;9.64;54.05;95011.09;109120;1266;22450;-81
2023/03/14 02:42:24;;;;;;;;;;;;;;;9.65;53.98;95016.81;109088;1274;22484;-81
2023/03/14 02:44:55;;;;;;;;;;;;;;;9.61;54.09;95016.41;109090;1266;22450;-81
2023/03/14 02:47:29;;;;;;;;;;;;;;;9.55;54.18;95012.59;109093;1273;22523;-82
2023/03/14 02:50:01;;;;;;;;;;;;;;;9.57;54.24;95015.46;109114;1266;22543;-81
2023/03/14 02:52:31;;;;;;;;;;;;;;;9.52;54.27;95008.23;109145;1274;22566;-81
2023/03/14 02:55:00;;;;;;;;;;;;;;;9.50;54.23;95010.32;109110;1274;22593;-81
2023/03/14 02:57:29;;;;;;;;;;;;;;;9.49;54.37;95007.50;109088;1273;22806;-81
2023/03/14 03:00:00;;;;;;;;;;;;;;;9.47;54.33;95002.98;109114;1273;25901;-82
2023/03/14 03:02:30;;;;;;;;;;;;;;;9.41;54.31;95000.50;109148;1274;22499;-82
2023/03/14 03:05:00;;;;;;;;;;;;;;;9.35;54.53;95004.98;109089;1269;22610;-81
2023/03/14 03:07:30;;;;;;;;;;;;;;;9.24;54.62;94997.29;108955;1268;201092;-81
2023/03/14 03:09:59;;;;;;;;;;;;;;;9.09;54.85;94998.21;109117;1266;23375;-82
2023/03/14 03:12:28;;;;;;;;;;;;;;;9.08;55.15;94991.05;109092;1272;24983;-81
2023/03/14 03:14:58;;;;;;;;;;;;;;;9.05;55.07;94978.09;109082;1274;22529;-81
2023/03/14 03:17:28;;;;;;;;;;;;;;;9.14;55.12;94976.24;109129;1274;22512;-80
2023/03/14 03:19:58;;;;;;;;;;;;;;;9.40;54.39;94965.13;109120;1273;22517;-80
2023/03/14 03:22:27;;;;;;;;;;;;;;;9.67;53.76;94957.35;109095;1266;24869;-81
2023/03/14 03:24:57;;;;;;;;;;;;;;;9.77;53.45;94954.83;109126;1274;27190;-81
2023/03/14 03:27:26;;;;;;;;;;;;;;;9.85;52.97;94943.20;109119;1271;22784;-81
2023/03/14 03:29:55;;;;;;;;;;;;;;;9.89;52.93;94938.32;109142;1266;22490;-81
2023/03/14 03:32:25;;;;;;;;;;;;;;;9.88;53.01;94941.23;109146;1273;22477;-81
2023/03/14 03:34:54;;;;;;;;;;;;;;;9.73;53.02;94928.92;109037;1274;22437;-81
2023/03/14 03:37:24;;;;;;;;;;;;;;;9.83;52.67;94922.02;109106;1273;22830;-81
2023/03/14 03:39:53;;;;;;;;;;;;;;;9.92;52.46;94918.87;109078;1267;25240;-81
2023/03/14 03:42:23;;;;;;;;;;;;;;;10.05;52.20;94923.41;109154;1271;23299;-81
2023/03/14 03:44:54;;;;;;;;;;;;;;;10.13;51.96;94916.33;108978;1273;101114;-81
2023/03/14 03:47:25;;;;;;;;;;;;;;;10.14;51.66;94912.59;109148;1274;23707;-82
2023/03/14 03:49:54;;;;;;;;;;;;;;;10.10;51.60;94902.13;109090;1273;25266;-81
2023/03/14 03:52:24;;;;;;;;;;;;;;;10.17;51.33;94899.16;109087;1274;22511;-81
2023/03/14 03:54:53;;;;;;;;;;;;;;;10.27;51.22;94889.46;109092;1273;22483;-81
2023/03/14 03:57:22;;;;;;;;;;;;;;;10.20;51.28;94900.09;109068;1274;22491;-81
2023/03/14 03:59:52;;;;;;;;;;;;;;;10.13;51.48;94899.45;109113;1273;23441;-81
2023/03/14 04:02:21;;;;;;;;;;;;;;;9.95;51.90;94908.90;109137;1274;22510;-82
2023/03/14 04:04:50;;;;;;;;;;;;;;;9.75;52.35;94919.43;109097;1274;24913;-81
2023/03/14 04:07:20;;;;;;;;;;;;;;;9.57;52.66;94913.38;109121;1274;22492;-82
2023/03/14 04:09:49;;;;;;;;;;;;;;;9.42;53.10;94910.77;109114;1274;22435;-82
2023/03/14 04:12:18;;;;;;;;;;;;;;;9.21;53.42;94913.02;109140;1273;24186;-81
2023/03/14 04:14:48;;;;;;;;;;;;;;;9.35;53.52;94915.50;109094;1274;41381;-81
2023/03/14 04:17:17;;;;;;;;;;;;;;;9.36;53.31;94915.31;109099;1274;22480;-81
2023/03/14 04:19:49;;;;;;;;;;;;;;;9.40;53.39;94906.34;109118;1273;22437;-82
2023/03/14 04:22:18;;;;;;;;;;;;;;;9.49;53.20;94907.06;109084;1274;22574;-82
2023/03/14 04:24:48;;;;;;;;;;;;;;;9.58;53.12;94907.19;109078;1274;22536;-82
2023/03/14 04:27:17;;;;;;;;;;;;;;;9.53;53.06;94913.03;109120;1271;22520;-81
2023/03/14 04:29:46;;;;;;;;;;;;;;;9.58;53.00;94916.34;109060;1270;22499;-81
2023/03/14 04:32:16;;;;;;;;;;;;;;;9.61;52.90;94911.80;109131;1273;22533;-81
2023/03/14 04:34:46;;;;;;;;;;;;;;;9.59;52.72;94898.20;109078;1274;22664;-82
2023/03/14 04:37:15;;;;;;;;;;;;;;;9.55;52.79;94906.48;109127;1272;22969;-82
2023/03/14 04:39:45;;;;;;;;;;;;;;;9.45;53.07;94912.11;109074;1269;23726;-82
2023/03/14 04:42:14;;;;;;;;;;;;;;;9.32;53.43;94924.63;109054;1274;22449;-82
2023/03/14 04:44:46;;;;;;;;;;;;;;;9.25;53.69;94931.92;109069;1266;23793;-82
2023/03/14 04:47:16;;;;;;;;;;;;;;;9.23;53.85;94929.96;109099;1274;22609;-82
2023/03/14 04:49:45;;;;;;;;;;;;;;;9.30;53.96;94935.02;109119;1274;22518;-81
2023/03/14 04:52:15;;;;;;;;;;;;;;;9.34;53.79;94932.88;109138;1274;22500;-81
2023/03/14 04:54:45;;;;;;;;;;;;;;;9.37;53.98;94936.07;109108;1274;22430;-81
2023/03/14 04:57:14;;;;;;;;;;;;;;;9.39;53.93;94934.64;109095;1262;22542;-81
2023/03/14 04:59:44;;;;;;;;;;;;;;;9.44;54.02;94947.00;109041;1269;22583;-82
2023/03/14 05:02:14;;;;;;;;;;;;;;;9.45;54.23;94959.52;109113;1273;22563;-81
2023/03/14 05:04:43;;;;;;;;;;;;;;;9.45;54.18;94969.88;109133;1274;22518;-82
2023/03/14 05:07:12;;;;;;;;;;;;;;;9.47;54.32;94960.41;109121;1273;22491;-82
2023/03/14 05:09:44;;;;;;;;;;;;;;;9.47;54.42;94959.45;109125;1270;23013;-82
2023/03/14 05:12:13;;;;;;;;;;;;;;;9.51;54.40;94962.45;109076;1266;22534;-82
2023/03/14 05:14:44;;;;;;;;;;;;;;;9.56;54.35;94976.21;109083;1272;24000;-82
2023/03/14 05:17:14;;;;;;;;;;;;;;;9.66;54.19;94976.09;109079;1273;22511;-82
2023/03/14 05:19:43;;;;;;;;;;;;;;;9.75;54.21;94977.28;109082;1274;22515;-82
2023/03/14 05:22:13;;;;;;;;;;;;;;;9.83;54.21;94973.00;109112;1273;25294;-83
2023/03/14 05:24:45;;;;;;;;;;;;;;;9.97;54.22;94970.13;108972;1273;93440;-82
2023/03/14 05:27:15;;;;;;;;;;;;;;;10.13;54.18;94959.44;109124;1274;22493;-83
2023/03/14 05:29:44;;;;;;;;;;;;;;;10.31;53.88;94960.60;109065;1272;22524;-83
2023/03/14 05:32:14;;;;;;;;;;;;;;;10.65;53.85;94954.98;109104;1272;22435;-83
2023/03/14 05:34:45;;;;;;;;;;;;;;;11.12;53.07;94958.84;109057;1270;22452;-81
2023/03/14 05:37:15;;;;;;;;;;;;;;;11.45;52.57;94965.62;109093;1274;22525;-82
2023/03/14 05:39:44;;;;;;;;;;;;;;;11.63;52.22;94963.52;109078;1272;22594;-82
2023/03/14 05:42:14;;;;;;;;;;;;;;;11.90;51.69;94956.77;109139;1273;26125;-82
2023/03/14 05:44:43;;;;;;;;;;;;;;;12.36;51.10;94951.20;109078;1274;22492;-82
2023/03/14 05:47:13;;;;;;;;;;;;;;;12.37;50.10;94947.82;109110;1270;24148;-80
2023/03/14 05:49:42;;;;;;;;;;;;;;;12.25;50.39;94951.70;109108;1273;23891;-82
2023/03/14 05:52:12;;;;;;;;;;;;;;;12.45;50.66;94952.95;109108;1273;22510;-82
2023/03/14 05:54:41;;;;;;;;;;;;;;;12.77;49.79;94945.56;109109;1274;52886;-82
2023/03/14 05:57:12;;;;;;;;;;;;;;;12.84;49.11;94949.73;109120;1274;22922;-82
2023/03/14 05:59:41;;;;;;;;;;;;;;;12.97;49.50;94949.14;109135;1274;25395;-82
2023/03/14 06:02:11;;;;;;;;;;;;;;;13.37;48.65;94944.58;109118;1274;22489;-82
2023/03/14 06:04:40;;;;;;;;;;;;;;;13.70;47.60;94939.27;109115;1274;22550;-82
2023/03/14 06:07:10;;;;;;;;;;;;;;;13.99;47.82;94939.54;109110;1273;22507;-83
2023/03/14 06:09:40;;;;;;;;;;;;;;;14.16;47.33;94937.16;109109;1273;22463;-82
2023/03/14 06:12:10;;;;;;;;;;;;;;;14.05;47.41;94930.11;109089;1266;25268;-82
2023/03/14 06:14:40;;;;;;;;;;;;;;;13.72;47.23;94937.58;109102;1270;23764;-82
2023/03/14 06:17:10;;;;;;;;;;;;;;;13.44;47.73;94936.40;109102;1266;22485;-82
2023/03/14 06:19:40;;;;;;;;;;;;;;;13.46;48.21;94935.85;109105;1273;22600;-83
2023/03/14 06:22:09;;;;;;;;;;;;;;;13.81;47.90;94935.77;109094;1274;22621;-83
2023/03/14 06:24:39;;;;;;;;;;;;;;;13.95;47.42;94937.17;109010;1274;78935;-82
2023/03/14 06:27:08;;;;;;;;;;;;;;;13.85;47.27;94939.16;109091;1273;22517;-82
2023/03/14 06:29:38;;;;;;;;;;;;;;;13.85;47.51;94931.10;109051;1274;22502;-82
2023/03/14 06:32:07;;;;;;;;;;;;;;;13.89;47.17;94920.91;109090;1272;22490;-82
2023/03/14 06:34:38;;;;;;;;;;;;;;;13.94;47.35;94919.60;109066;1274;54989;-82
2023/03/14 06:37:07;;;;;;;;;;;;;;;14.24;47.27;94920.16;109120;1274;22526;-82
2023/03/14 06:39:38;;;;;;;;;;;;;;;14.29;46.98;94923.11;109118;1274;22889;-82
2023/03/14 06:42:09;;;;;;;;;;;;;;;14.14;46.95;94927.29;109114;1274;22681;-82
2023/03/14 06:44:39;;;;;;;;;;;;;;;13.75;46.91;94918.33;109023;1274;46598;-81
2023/03/14 06:47:08;;;;;;;;;;;;;;;13.43;47.59;94915.08;109060;1274;22500;-81
2023/03/14 06:49:40;;;;;;;;;;;;;;;13.40;47.63;94911.06;109112;1272;22503;-82
2023/03/14 06:52:09;;;;;;;;;;;;;;;13.40;47.96;94913.65;109057;1274;22512;-82
2023/03/14 06:54:39;;;;;;;;;;;;;;;14.01;47.47;94917.02;108951;1275;106075;-82
2023/03/14 06:57:08;;;;;;;;;;;;;;;14.91;46.81;94909.89;109082;1273;25419;-81
2023/03/14 06:59:38;;;;;;;;;;;;;;;15.41;45.61;94902.54;109091;1272;22614;-82
2023/03/14 07:02:11;;;;;;;;;;;;;;;15.26;45.35;94897.01;109134;1274;22513;-81
2023/03/14 07:04:41;;;;;;;;;;;;;;;14.87;45.30;94899.38;109027;1273;55607;-81
2023/03/14 07:07:10;;;;;;;;;;;;;;;14.55;45.60;94896.20;109101;1274;22486;-82
2023/03/14 07:09:39;;;;;;;;;;;;;;;14.84;44.88;94892.05;109108;1273;22532;-82
2023/03/14 07:12:09;;;;;;;;;;;;;;;14.83;45.07;94888.77;109060;1266;22528;-81
2023/03/14 07:14:38;;;;;;;;;;;;;;;14.84;44.80;94885.98;109076;1269;43933;-81
2023/03/14 07:17:08;;;;;;;;;;;;;;;14.76;45.15;94892.72;109126;1273;24244;-81
2023/03/14 07:19:38;;;;;;;;;;;;;;;14.91;45.66;94892.61;109092;1272;22501;-81
2023/03/14 07:22:07;;;;;;;;;;;;;;;14.85;45.29;94894.45;109107;1274;22494;-81
2023/03/14 07:24:37;;;;;;;;;;;;;;;14.92;45.49;94892.46;109016;1272;80582;-81
2023/03/14 07:27:06;;;;;;;;;;;;;;;15.01;45.21;94893.73;109153;1267;22678;-82
2023/03/14 07:29:36;;;;;;;;;;;;;;;15.31;45.34;94889.13;109090;1274;22486;-81
2023/03/14 07:32:06;;;;;;;;;;;;;;;15.80;44.60;94887.14;109115;1274;22534;-81
2023/03/14 07:34:35;;;;;;;;;;;;;;;15.76;44.38;94882.88;109065;1273;55139;-81
2023/03/14 07:37:05;;;;;;;;;;;;;;;16.51;44.43;94873.56;109082;1273;23881;-81
2023/03/14 07:39:34;;;;;;;;;;;;;;;16.97;42.36;94876.52;109078;1274;22531;-80
2023/03/14 07:42:04;;;;;;;;;;;;;;;16.50;42.42;94880.35;109088;1274;25472;-81
2023/03/14 07:44:34;;;;;;;;;;;;;;;16.63;42.96;94884.98;109079;1269;67162;-81
2023/03/14 07:47:03;;;;;;;;;;;;;;;17.91;42.55;94883.66;109097;1271;22519;-81
2023/03/14 07:49:33;;;;;;;;;;;;;;;18.90;40.94;94886.28;109064;1274;22533;-80
2023/03/14 07:52:03;;;;;;;;;;;;;;;19.47;39.78;94878.24;109083;1273;22606;-81
2023/03/14 07:54:35;;;;;;;;;;;;;;;20.10;38.09;94872.02;109061;1274;58262;-81
2023/03/14 07:57:04;;;;;;;;;;;;;;;20.93;37.31;94872.41;109125;1274;22488;-81
2023/03/14 07:59:34;;;;;;;;;;;;;;;20.98;35.45;94875.80;109049;1274;22500;-81
2023/03/14 08:02:05;;;;;;;;;;;;;;;20.95;36.50;94877.64;109111;1274;24212;-81
2023/03/14 08:04:35;;;;;;;;;;;;;;;20.46;35.47;94878.85;109046;1274;52007;-80
2023/03/14 08:07:04;;;;;;;;;;;;;;;19.61;36.42;94884.70;109112;1274;22493;-80
2023/03/14 08:09:34;;;;;;;;;;;;;;;18.79;36.92;94879.27;109106;1272;22531;-80
2023/03/14 08:12:03;;;;;;;;;;;;;;;17.68;37.89;94886.69;109075;1266;22607;-80
2023/03/14 08:14:33;;;;;;;;;;;;;;;16.51;38.90;94870.80;109016;1273;66021;-80
2023/03/14 08:17:02;;;;;;;;;;;;;;;15.64;40.38;94862.79;109062;1273;25386;-80
2023/03/14 08:19:32;;;;;;;;;;;;;;;14.96;41.46;94845.36;109107;1274;23896;-80
2023/03/14 08:22:02;;;;;;;;;;;;;;;14.49;42.76;94861.53;109076;1274;22525;-80
2023/03/14 08:24:32;;;;;;;;;;;;;;;14.27;43.49;94870.73;109055;1274;53920;-80
2023/03/14 08:27:01;;;;;;;;;;;;;;;14.09;43.66;94847.06;109066;1273;22608;-81
2023/03/14 08:29:31;;;;;;;;;;;;;;;13.91;44.22;94857.11;109092;1274;23060;-79
2023/03/14 08:32:00;;;;;;;;;;;;;;;13.96;44.21;94853.21;109077;1273;22711;-80
2023/03/14 08:34:30;;;;;;;;;;;;;;;14.72;44.00;94838.65;109021;1273;76226;-80
2023/03/14 08:36:59;;;;;;;;;;;;;;;15.76;42.22;94839.73;109029;1274;22761;-80
2023/03/14 08:39:29;;;;;;;;;;;;;;;15.78;41.22;94837.40;109080;1266;22525;-79
2023/03/14 08:41:58;;;;;;;;;;;;;;;15.72;40.81;94793.42;109133;1270;22448;-80
2023/03/14 08:44:28;;;;;;;;;;;;;;;15.52;41.35;94799.59;109079;1273;35496;-80
2023/03/14 08:46:57;;;;;;;;;;;;;;;15.35;42.09;94819.56;109103;1274;23821;-79
2023/03/14 08:49:27;;;;;;;;;;;;;;;15.08;42.29;94804.30;109074;1274;24329;-80
2023/03/14 08:52:04;;;;;;;;;;;;;;;14.77;42.88;94812.02;109091;1274;22518;-80
2023/03/14 08:54:34;;;;;;;;;;;;;;;14.41;43.20;94803.59;109047;1263;37147;-79
2023/03/14 08:57:03;;;;;;;;;;;;;;;14.25;43.88;94805.58;109108;1272;23799;-80
2023/03/14 08:59:32;;;;;;;;;;;;;;;14.00;44.19;94812.82;109083;1274;22452;-79
2023/03/14 09:02:03;;;;;;;;;;;;;;;13.60;44.89;94815.30;109108;1273;22895;-79
2023/03/14 09:04:32;;;;;;;;;;;;;;;13.46;45.72;94805.42;109063;1274;22495;-79
2023/03/14 09:07:03;;;;;;;;;;;;;;;13.45;46.00;94804.50;109060;1274;23744;-78
2023/03/14 09:09:32;;;;;;;;;;;;;;;13.41;46.27;94832.45;109103;1273;25210;-80
2023/03/14 09:12:01;;;;;;;;;;;;;;;13.30;46.76;94850.09;109066;1274;25246;-79
2023/03/14 09:14:35;;;;;;;;;;;;;;;13.13;46.82;94850.48;109048;1268;22535;-80
2023/03/14 09:17:09;;;;;;;;;;;;;;;13.02;47.50;94873.44;109086;1272;22514;-79
2023/03/14 09:19:39;;;;;;;;;;;;;;;12.92;47.94;94861.04;109064;1274;22503;-79
2023/03/14 09:22:08;;;;;;;;;;;;;;;12.88;48.11;94852.27;109109;1274;24945;-79
2023/03/14 09:24:38;;;;;;;;;;;;;;;12.91;48.31;94868.91;109041;1273;41411;-79
2023/03/14 09:27:07;;;;;;;;;;;;;;;13.12;48.43;94870.67;109086;1269;22657;-80
2023/03/14 09:29:39;;;;;;;;;;;;;;;13.19;48.03;94858.51;109086;1272;25418;-79
2023/03/14 09:32:10;;;;;;;;;;;;;;;13.13;48.02;94847.00;109085;1274;22453;-80
2023/03/14 09:34:40;;;;;;;;;;;;;;;13.03;48.17;94867.23;109024;1274;77299;-80
2023/03/14 09:37:11;;;;;;;;;;;;;;;12.88;48.36;94831.75;109090;1274;22498;-79
2023/03/14 09:39:40;;;;;;;;;;;;;;;12.76;48.83;94871.67;109085;1273;22503;-79
2023/03/14 09:42:26;;;;;;;;;;;;;;;12.76;49.09;94879.59;109062;1274;25028;-79
2023/03/14 09:44:57;;;;;;;;;;;;;;;12.78;49.10;94872.17;109087;1274;22610;-79
2023/03/14 09:47:30;;;;;;;;;;;;;;;12.85;48.98;94874.69;109124;1273;22535;-79
2023/03/14 09:50:06;;;;;;;;;;;;;;;12.95;48.84;94885.91;109086;1273;22525;-79
2023/03/14 09:52:41;;;;;;;;;;;;;;;13.17;48.82;94884.51;109079;1274;23687;-80
2023/03/14 09:55:14;;;;;;;;;;;;;;;13.26;48.28;94886.77;109044;1267;22447;-79
2023/03/14 09:57:45;;;;;;;;;;;;;;;13.44;48.25;94897.53;109135;1274;22513;-79
2023/03/14 10:00:18;;;;;;;;;;;;;;;13.60;48.06;94910.26;109101;1274;25396;-80
2023/03/14 10:02:51;;;;;;;;;;;;;;;13.73;47.76;94907.77;109120;1270;22472;-79
2023/03/14 10:05:21;;;;;;;;;;;;;;;13.83;47.89;94907.90;107483;1267;2103046;-80
2023/03/14 10:07:51;;;;;;;;;;;;;;;13.99;47.75;94918.15;109060;1274;24233;-80
2023/03/14 10:10:22;;;;;;;;;;;;;;;14.08;47.53;94919.01;109100;1271;22512;-79
2023/03/14 10:12:57;;;;;;;;;;;;;;;14.03;46.98;94900.04;109127;1274;25398;-79
2023/03/14 10:15:30;;;;;;;;;;;;;;;13.83;46.94;94917.10;109041;1274;25344;-79
2023/03/14 10:18:01;;;;;;;;;;;;;;;13.85;47.29;94920.89;109029;1274;23654;-79
2023/03/14 10:20:35;;;;;;;;;;;;;;;13.87;47.27;94931.90;109080;1264;22516;-79
2023/03/14 10:23:06;;;;;;;;;;;;;;;13.95;47.30;94952.67;109077;1273;22673;-80
2023/03/14 10:25:36;;;;;;;;;;;;;;;14.08;47.38;94934.66;109070;1274;25457;-80
2023/03/14 10:28:06;;;;;;;;;;;;;;;14.19;47.33;94931.23;109093;1270;22497;-80
2023/03/14 10:30:43;;;;;;;;;;;;;;;14.16;47.37;94941.20;109142;1274;24951;-79
2023/03/14 10:33:20;;;;;;;;;;;;;;;14.02;46.87;94932.75;109082;1273;22546;-79
2023/03/14 10:35:56;;;;;;;;;;;;;;;13.82;47.37;94934.74;109056;1269;23171;-79
2023/03/14 10:38:28;;;;;;;;;;;;;;;13.75;47.57;94938.27;109118;1274;22525;-79
2023/03/14 10:40:59;;;;;;;;;;;;;;;13.75;47.95;94945.11;109069;1273;22512;-80
2023/03/14 10:43:34;;;;;;;;;;;;;;;13.72;48.03;94950.36;109055;1275;22568;-80
2023/03/14 10:46:09;;;;;;;;;;;;;;;13.69;48.27;94948.98;109047;1267;22609;-80
2023/03/14 10:48:41;;;;;;;;;;;;;;;13.65;48.36;94958.77;109085;1274;25392;-80
2023/03/14 10:51:12;;;;;;;;;;;;;;;13.54;48.29;94954.05;109126;1267;22499;-80
2023/03/14 10:53:43;;;;;;;;;;;;;;;13.42;48.80;94967.53;109063;1270;25391;-79
2023/03/14 10:56:18;;;;;;;;;;;;;;;13.35;48.73;94969.47;109055;1274;25414;-79
2023/03/14 10:58:48;;;;;;;;;;;;;;;13.27;49.16;94959.89;109059;1270;22544;-80
2023/03/14 11:01:28;;;;;;;;;;;;;;;13.21;49.01;94958.02;109103;1274;22458;-80
2023/03/14 11:04:02;;;;;;;;;;;;;;;13.25;49.59;94967.34;109046;1270;22501;-80
2023/03/14 11:06:37;;;;;;;;;;;;;;;13.29;49.35;94966.86;109026;1270;22493;-80
2023/03/14 11:09:12;;;;;;;;;;;;;;;13.33;49.45;94969.46;109106;1274;22495;-79
2023/03/14 11:11:46;;;;;;;;;;;;;;;13.35;49.49;94962.23;109085;1262;22527;-79
2023/03/14 11:14:22;;;;;;;;;;;;;;;13.38;49.31;94963.17;109102;1272;22455;-80
2023/03/14 11:16:57;;;;;;;;;;;;;;;13.47;49.76;94960.06;109077;1273;22965;-80
2023/03/14 11:19:50;;;;;;;;;;;;;;;13.61;50.04;94960.63;109102;1273;22527;-79
2023/03/14 11:22:29;;;;;;;;;;;;;;;13.74;49.99;94953.69;109102;1271;22488;-79
2023/03/14 11:25:08;;;;;;;;;;;;;;;13.82;49.41;94933.75;109093;1273;22554;-79
2023/03/14 11:27:43;;;;;;;;;;;;;;;13.81;49.20;94928.94;109037;1273;24266;-79
2023/03/14 11:30:19;;;;;;;;;;;;;;;13.89;49.86;94934.00;109111;1274;25976;-79
2023/03/14 11:32:51;;;;;;;;;;;;;;;14.03;49.85;94933.16;109047;1274;22502;-79
2023/03/14 11:35:26;;;;;;;;;;;;;;;14.12;49.40;94937.59;109055;1273;22495;-79
2023/03/14 11:37:57;;;;;;;;;;;;;;;14.16;49.12;94928.09;109060;1267;22501;-79
2023/03/14 11:40:28;;;;;;;;;;;;;;;14.27;49.18;94923.14;109096;1261;22886;-79
2023/03/14 11:43:00;;;;;;;;;;;;;;;14.34;48.80;94916.52;109079;1273;22462;-79
2023/03/14 11:45:33;;;;;;;;;;;;;;;14.44;48.84;94915.11;109048;1274;25214;-79
2023/03/14 11:48:16;;;;;;;;;;;;;;;14.52;48.86;94913.20;109064;1274;22542;-80
2023/03/14 11:50:51;;;;;;;;;;;;;;;14.41;48.16;94923.73;109080;1274;22449;-79
2023/03/14 11:53:23;;;;;;;;;;;;;;;14.35;48.45;94922.11;109062;1274;22537;-80
2023/03/14 11:55:53;;;;;;;;;;;;;;;14.33;48.47;94920.45;109093;1274;22442;-79
2023/03/14 11:58:26;;;;;;;;;;;;;;;14.27;48.08;94923.98;109077;1273;22519;-79
2023/03/14 12:01:00;;;;;;;;;;;;;;;14.24;47.83;94920.48;109084;1274;24892;-79
2023/03/14 12:03:36;;;;;;;;;;;;;;;14.19;47.99;94919.88;109091;1274;23668;-79
2023/03/14 12:06:15;;;;;;;;;;;;;;;14.14;47.86;94926.23;109042;1273;22569;-79
2023/03/14 12:08:46;;;;;;;;;;;;;;;14.10;47.32;94912.86;109093;1267;22485;-79
2023/03/14 12:11:26;;;;;;;;;;;;;;;14.10;47.24;94905.73;109091;1274;23199;-79
2023/03/14 12:13:56;;;;;;;;;;;;;;;14.12;47.29;94902.65;109092;1267;23362;-79
2023/03/14 12:16:32;;;;;;;;;;;;;;;14.18;47.59;94909.56;109078;1274;22499;-79
2023/03/14 12:19:15;;;;;;;;;;;;;;;14.22;47.72;94912.41;109099;1267;22467;-79
2023/03/14 12:21:51;;;;;;;;;;;;;;;14.16;47.66;94916.91;109058;1271;22529;-79
2023/03/14 12:24:24;;;;;;;;;;;;;;;14.11;47.77;94911.69;109046;1268;59564;-79
2023/03/14 12:26:56;;;;;;;;;;;;;;;14.10;48.21;94908.85;109071;1274;24228;-79
2023/03/14 12:29:48;;;;;;;;;;;;;;;14.09;48.08;94911.77;109058;1267;22586;-79
2023/03/14 12:32:25;;;;;;;;;;;;;;;13.98;47.51;94905.86;109074;1274;22515;-79
2023/03/14 12:34:54;;;;;;;;;;;;;;;13.87;47.70;94903.35;109080;1273;22545;-79
2023/03/14 12:37:34;;;;;;;;;;;;;;;13.81;48.29;94901.98;109072;1274;22548;-79
2023/03/14 12:40:12;;;;;;;;;;;;;;;13.74;48.08;94903.84;109123;1273;22912;-79
2023/03/14 12:42:47;;;;;;;;;;;;;;;13.61;48.71;94915.36;109118;1269;23339;-79
2023/03/14 12:45:26;;;;;;;;;;;;;;;13.61;48.83;94919.77;109090;1274;26970;-79
2023/03/14 12:48:02;;;;;;;;;;;;;;;13.58;48.89;94916.13;109084;1274;23594;-79
2023/03/14 12:50:42;;;;;;;;;;;;;;;13.53;49.11;94915.24;109108;1274;22506;-78
2023/03/14 12:53:24;;;;;;;;;;;;;;;13.48;49.13;94918.26;109093;1267;24266;-78
2023/03/14 12:55:58;;;;;;;;;;;;;;;13.40;49.37;94917.42;108968;1271;74324;-79
2023/03/14 12:58:32;;;;;;;;;;;;;;;13.29;49.49;94926.55;109118;1266;22631;-79
2023/03/14 13:01:03;;;;;;;;;;;;;;;13.18;49.69;94925.45;109142;1267;22500;-79